Milan, Italy

1:37 PM CEST on May 05, 2015 (GMT +0200)
ILOMBARD91 | | Change Station
CLOSE
Current Station
Personal Weather Station
Location: SOMMA LOMBARDO, LOMBARDIA
Elevation: 935 ft
Nearby Weather Stations

Elev 935 ft 45.69 °N, 8.69 °E | Updated 1 minute ago

Mostly Cloudy
Mostly Cloudy
68.9 °F
Feels Like 68.9 °F
N
0.0
Wind Variable Wind from SSE
Gusts 1.0 mph

Today
High -- | Low -- °F
--% Chance of Precip.
Yesterday
High -- | Low -- °F
Precip. -- in
6:07 AM 8:36 PM
Full, 98% visible
Pressure 29.95 in
Visibility 3.1 miles
Clouds Scattered Clouds 2500 ft
Mostly Cloudy 5000 ft
Dew Point 62 °F
Humidity 80%
Rainfall 0.00 in
Snow Depth Not available.
UV 6 out of 12
Pollen Not available.
Air Quality Not available.
Flu Activity Not available.
METAR LIMC 051120Z VRB02KT 5000 BR SCT025 BKN050 21/16 Q1014 NOSIG

More Conditions Fewer Conditions

Pressure 29.95 in
Visibility 3.1 miles
Clouds Scattered Clouds 2500 ft
Mostly Cloudy 5000 ft
Dew Point 62 °F
Humidity 80%
Rainfall 0.00 in
Snow Depth Not available.
UV 6 out of 12
Pollen Not available.
Air Quality Not available.
Flu Activity Not available.
METAR LIMC 051120Z VRB02KT 5000 BR SCT025 BKN050 21/16 Q1014 NOSIG

More Conditions Fewer Conditions

10-Day Weather Forecast

Almanac

Astronomy

May. 05, 2015 Rise Set
Actual Time
Civil Twilight
Nautical Twilight
Astronomical Twilight
Moon
Length of Visible Light
Length of Day
Tomorrow will be .
, % of the Moon is Illuminated

Today's Extremes

Country Highs Country Lows

Community

WunderPhotos

Upload Photos

1,818,831 photos uploaded!

WunderBlogs® & News

Nearby

Air Quality

  Air Quality AQ Index Pollutant
Not available.

Snow Depth

Station Depth Elevation

Earthquake Activity

City Distance Mag. Time & Date
Minimum magnitude displayed is 2.5.

Coastal Water Temperatures

Place Temperature

Stations

Nearby Weather Stations

Station Location Temp. Windchill Dew Point Humidity Wind Precip. Elev Updated Type